Las Piedras, PR (00771)

9:28 PM AST on February 26, 2015 (GMT -0400)
KP4DMR | Change Station
CLOSE
Current Station
Personal Weather Station
Location: Yabucoa, YABUCOA
Elevation: 676 ft
Nearby Weather Stations

Elev 676 ft 18.09 °N, 65.90 °W | Updated 8 minutes ago

Overcast
Overcast
74.1 °F
Feels Like 73 °F
N
6.8
Wind Variable Wind from ESE

Today
High -- | Low -- °F
--% Chance of Precip.
Yesterday
High -- | Low -- °F
Precip. -- in
6:44 AM 6:28 PM
Waxing Gibbous, 64% visible
Pressure 30.10 in
Visibility 10.0 miles
Clouds Few 2800 ft
Few 3400 ft
Overcast 7500 ft
Heat Index 73 °F
Dew Point 70 °F
Humidity 86%
Rainfall 0.05 in
Snow Depth Not available.
UV 0 out of 12
Pollen Not available.
Air Quality Not available.
Flu Activity Not available.
METAR TJNR 270053Z AUTO 09008KT 10SM FEW028 FEW034 OVC075 26/20 A3010 RMK AO2 SLP191 T02610200 $

More Conditions Fewer Conditions

Pressure 30.10 in
Visibility 10.0 miles
Clouds Few 2800 ft
Few 3400 ft
Overcast 7500 ft
Heat Index 73 °F
Dew Point 70 °F
Humidity 86%
Rainfall 0.05 in
Snow Depth Not available.
UV 0 out of 12
Pollen Not available.
Air Quality Not available.
Flu Activity Not available.
METAR TJNR 270053Z AUTO 09008KT 10SM FEW028 FEW034 OVC075 26/20 A3010 RMK AO2 SLP191 T02610200 $

More Conditions Fewer Conditions

10-Day Weather Forecast

Almanac

Astronomy

Feb. 26, 2015 Rise Set
Actual Time
Civil Twilight
Nautical Twilight
Astronomical Twilight
Moon
Length of Visible Light
Length of Day
Tomorrow will be .
, % of the Moon is Illuminated

Today's Extremes

State Highs State Lows

Community

WunderPhotos

Upload Photos

1,800,553 photos uploaded!

WunderBlogs® & News

Nearby

Air Quality

  Air Quality AQ Index Pollutant
Not available.

Snow Depth

Station Depth Elevation

Earthquake Activity

City Distance Mag. Time & Date
Minimum magnitude displayed is 2.5.

Coastal Water Temperatures

Place Temperature

Nearby Weather Stations